Time;durP1;ratioP1;P1;durP2;ratioP2;P2;SDS_P1;SDS_P2;PMS_P1;PMS_P2;Temp;Humidity;BMP_temperature;BMP_pressure;BME280_temperature;BME280_humidity;BME280_pressure;Samples;Min_cycle;Max_cycle;Signal;HPM_P1;HPM_P2
2022/07/03 00:00:42;;;;;;;2.87;1.60;;;19.70;62.60;;;;;;5017444;28;20422;-88
2022/07/03 00:03:08;;;;;;;4.80;2.23;;;19.80;62.00;;;;;;5018905;28;20199;-89
2022/07/03 00:05:35;;;;;;;3.67;2.17;;;19.80;63.20;;;;;;5017736;28;20632;-89
2022/07/03 00:08:02;;;;;;;4.70;2.03;;;19.80;62.70;;;;;;5045960;28;20293;-89
2022/07/03 00:10:28;;;;;;;3.20;1.50;;;19.80;62.70;;;;;;5052636;28;20424;-88
2022/07/03 00:12:54;;;;;;;5.13;2.03;;;19.70;62.40;;;;;;5039314;28;20260;-88
2022/07/03 00:15:20;;;;;;;3.83;1.80;;;19.70;62.30;;;;;;5037301;28;20212;-89
2022/07/03 00:17:46;;;;;;;2.77;1.80;;;19.70;63.40;;;;;;5037015;28;20198;-88
2022/07/03 00:20:11;;;;;;;2.03;1.80;;;19.60;63.00;;;;;;5037684;28;20493;-88
2022/07/03 00:22:42;;;;;;;3.40;1.67;;;19.60;62.50;;;;;;5038150;28;20186;-88
2022/07/03 00:25:11;;;;;;;2.40;1.92;;;19.60;62.70;;;;;;5057403;28;20158;-89
2022/07/03 00:27:39;;;;;;;3.13;1.80;;;19.60;63.10;;;;;;5041339;28;20198;-89
2022/07/03 00:30:07;;;;;;;4.60;1.92;;;19.60;63.30;;;;;;5041848;28;20196;-89
2022/07/03 00:32:37;;;;;;;3.85;2.53;;;19.60;63.00;;;;;;5050808;28;20216;-89
2022/07/03 00:35:03;;;;;;;4.20;2.13;;;19.60;63.30;;;;;;5057926;28;20173;-90
2022/07/03 00:37:29;;;;;;;5.20;1.95;;;19.60;62.40;;;;;;5043004;28;20200;-92
2022/07/03 00:39:57;;;;;;;3.78;1.63;;;19.60;61.90;;;;;;5060041;28;20159;-89
2022/07/03 00:42:23;;;;;;;4.22;2.15;;;19.50;61.70;;;;;;5057493;28;20178;-89
2022/07/03 00:44:51;;;;;;;2.70;1.83;;;19.50;61.60;;;;;;5039363;28;20182;-87
2022/07/03 00:47:19;;;;;;;3.13;1.70;;;19.50;60.80;;;;;;5049455;28;20226;-88
2022/07/03 00:49:48;;;;;;;3.60;1.42;;;19.50;60.80;;;;;;5035931;28;20174;-88
2022/07/03 00:52:18;;;;;;;5.25;2.30;;;19.50;61.00;;;;;;5035660;28;20233;-88
2022/07/03 00:54:53;;;;;;;5.45;2.20;;;19.50;60.90;;;;;;5035916;28;20665;-88
2022/07/03 00:57:21;;;;;;;3.55;1.90;;;19.50;61.30;;;;;;5020467;28;20335;-87
2022/07/03 00:59:47;;;;;;;4.90;1.80;;;19.50;61.30;;;;;;5035748;28;20311;-87
2022/07/03 01:02:23;;;;;;;4.90;2.50;;;19.50;60.70;;;;;;5036207;28;20213;-87
2022/07/03 01:05:03;;;;;;;5.55;2.30;;;19.50;61.80;;;;;;5036403;28;20411;-88
2022/07/03 01:07:51;;;;;;;6.28;3.13;;;19.50;61.90;;;;;;5037057;28;20678;-88
2022/07/03 01:10:39;;;;;;;7.82;2.90;;;19.40;62.20;;;;;;5037722;28;20166;-88
2022/07/03 01:13:17;;;;;;;3.80;2.25;;;19.40;62.30;;;;;;5036153;28;20612;-88
2022/07/03 01:15:48;;;;;;;6.13;3.00;;;19.40;62.40;;;;;;5036332;28;20555;-89
2022/07/03 01:18:23;;;;;;;7.22;2.80;;;19.40;62.60;;;;;;5035014;28;20592;-89
2022/07/03 01:21:08;;;;;;;5.78;3.00;;;19.40;62.60;;;;;;5036854;28;20157;-88
2022/07/03 01:23:54;;;;;;;4.30;2.70;;;19.30;62.50;;;;;;5037730;28;20180;-88
2022/07/03 01:26:25;;;;;;;5.05;2.40;;;19.20;61.60;;;;;;5036575;28;20170;-89
2022/07/03 01:28:51;;;;;;;5.00;2.20;;;19.20;60.80;;;;;;5035990;28;20178;-88
2022/07/03 01:31:22;;;;;;;3.50;2.40;;;19.20;61.10;;;;;;5036294;28;20767;-88
2022/07/03 01:33:51;;;;;;;4.82;2.63;;;19.10;61.20;;;;;;5040522;28;20404;-88
2022/07/03 01:36:21;;;;;;;2.97;2.20;;;19.10;59.40;;;;;;5041122;28;20272;-88
2022/07/03 01:38:49;;;;;;;3.25;1.90;;;19.10;59.40;;;;;;5045027;28;20194;-89
2022/07/03 01:41:15;;;;;;;3.95;2.20;;;19.10;59.60;;;;;;5051107;28;20181;-89
2022/07/03 01:43:47;;;;;;;3.20;2.00;;;19.10;59.00;;;;;;5052172;28;20209;-88
2022/07/03 01:46:14;;;;;;;3.80;2.17;;;19.00;58.50;;;;;;5056231;28;20166;-89
2022/07/03 01:48:42;;;;;;;8.40;4.57;;;19.00;59.30;;;;;;5049055;28;20247;-88
2022/07/03 01:51:25;;;;;;;5.40;2.47;;;19.00;59.70;;;;;;5036808;28;20217;-89
2022/07/03 01:53:52;;;;;;;4.57;2.42;;;19.00;60.50;;;;;;5034852;28;20174;-89
2022/07/03 01:56:20;;;;;;;7.95;2.67;;;19.00;60.70;;;;;;5041267;28;20666;-89
2022/07/03 01:58:45;;;;;;;5.53;2.92;;;18.90;60.80;;;;;;5050994;28;20546;-88
2022/07/03 02:01:23;;;;;;;5.17;2.07;;;18.90;60.80;;;;;;5040345;28;20177;-90
2022/07/03 02:04:15;;;;;;;7.28;2.45;;;18.90;60.20;;;;;;5042594;28;20408;-91
2022/07/03 02:06:50;;;;;;;6.05;3.03;;;18.80;60.70;;;;;;5043619;28;20188;-90
2022/07/03 02:09:22;;;;;;;8.70;2.63;;;18.80;60.50;;;;;;5045287;28;20252;-90
2022/07/03 02:11:48;;;;;;;4.97;2.40;;;18.80;60.80;;;;;;5040911;28;20202;-91
2022/07/03 02:14:18;;;;;;;4.05;2.30;;;18.80;60.60;;;;;;5043867;28;20177;-92
2022/07/03 02:17:03;;;;;;;9.68;3.50;;;18.80;61.00;;;;;;5054217;28;20182;-88
2022/07/03 02:19:59;;;;;;;6.40;3.00;;;18.80;60.80;;;;;;5035860;28;20681;-88
2022/07/03 02:22:34;;;;;;;9.15;2.83;;;18.80;61.20;;;;;;5035835;28;20642;-89
2022/07/03 02:25:23;;;;;;;4.68;2.60;;;18.80;61.00;;;;;;5035485;28;20180;-89
2022/07/03 02:27:54;;;;;;;10.13;2.83;;;18.80;61.40;;;;;;5054453;28;20193;-89
2022/07/03 02:30:26;;;;;;;4.68;2.75;;;18.80;60.80;;;;;;5053088;28;20197;-87
2022/07/03 02:32:54;;;;;;;4.05;2.35;;;18.80;60.70;;;;;;5049830;28;20201;-89
2022/07/03 02:35:30;;;;;;;11.02;2.75;;;18.70;61.10;;;;;;5056158;28;20165;-89
2022/07/03 02:38:16;;;;;;;10.05;3.20;;;18.70;61.20;;;;;;5048300;28;20235;-88
2022/07/03 02:41:04;;;;;;;4.35;2.20;;;18.70;61.30;;;;;;5035193;28;20165;-88
2022/07/03 02:43:38;;;;;;;6.90;3.15;;;18.70;61.10;;;;;;5038184;28;20182;-89
2022/07/03 02:46:50;;;;;;;6.82;3.30;;;18.70;61.30;;;;;;5056119;28;20162;-89
2022/07/03 02:49:28;;;;;;;7.40;2.88;;;18.70;61.10;;;;;;5055722;28;20174;-88
2022/07/03 02:52:29;;;;;;;6.90;2.95;;;18.60;61.30;;;;;;5055806;28;20213;-88
2022/07/03 02:55:00;;;;;;;4.80;2.67;;;18.60;61.10;;;;;;5057417;28;20158;-90
2022/07/03 02:57:37;;;;;;;6.47;3.13;;;18.60;61.20;;;;;;5049648;28;20209;-90
2022/07/03 03:00:10;;;;;;;3.38;2.40;;;18.60;60.80;;;;;;5034626;28;20646;-89
2022/07/03 03:02:57;;;;;;;7.38;2.72;;;18.60;61.30;;;;;;5035517;28;20650;-89
2022/07/03 03:05:35;;;;;;;7.00;3.10;;;18.50;61.00;;;;;;5034429;28;20170;-89
2022/07/03 03:08:40;;;;;;;10.00;3.40;;;18.50;61.90;;;;;;5034428;28;20198;-89
2022/07/03 03:11:11;;;;;;;6.93;3.53;;;18.50;61.70;;;;;;5038282;28;20176;-89
2022/07/03 03:13:37;;;;;;;5.22;2.92;;;18.50;61.30;;;;;;5038816;28;20170;-89
2022/07/03 03:16:08;;;;;;;8.93;3.60;;;18.50;61.80;;;;;;5022037;28;20220;-89
2022/07/03 03:18:37;;;;;;;6.38;4.40;;;18.50;61.90;;;;;;5038007;28;20685;-89
2022/07/03 03:21:05;;;;;;;9.43;4.18;;;18.40;61.10;;;;;;5039325;28;20220;-90
2022/07/03 03:23:31;;;;;;;8.50;4.13;;;18.40;61.80;;;;;;5039719;28;20174;-89
2022/07/03 03:25:58;;;;;;;6.00;3.20;;;18.40;61.80;;;;;;5039520;28;20182;-89
2022/07/03 03:28:25;;;;;;;5.90;3.15;;;18.40;61.60;;;;;;5039527;28;20468;-90
2022/07/03 03:30:51;;;;;;;6.90;4.60;;;18.40;62.20;;;;;;5047213;28;20194;-89
2022/07/03 03:33:17;;;;;;;6.67;3.10;;;18.40;62.30;;;;;;5053447;28;20236;-90
2022/07/03 03:35:43;;;;;;;7.38;4.15;;;18.40;62.80;;;;;;5047775;28;20184;-89
2022/07/03 03:38:09;;;;;;;7.30;3.73;;;18.30;62.70;;;;;;5042424;28;20201;-89
2022/07/03 03:40:35;;;;;;;3.67;3.10;;;18.30;62.70;;;;;;5022083;28;20225;-89
2022/07/03 03:43:02;;;;;;;5.57;3.35;;;18.30;62.40;;;;;;5018261;28;20243;-89
2022/07/03 03:45:28;;;;;;;7.30;4.15;;;18.30;63.50;;;;;;5013918;28;20181;-89
2022/07/03 03:47:59;;;;;;;5.73;4.10;;;18.40;61.40;;;;;;5028753;28;20285;-87
2022/07/03 03:50:25;;;;;;;7.45;4.50;;;18.40;62.10;;;;;;5018476;28;20167;-88
2022/07/03 03:52:50;;;;;;;7.03;4.17;;;18.30;62.70;;;;;;5001737;28;20268;-88
2022/07/03 03:55:16;;;;;;;6.83;3.90;;;18.30;62.70;;;;;;5017747;28;20187;-88
2022/07/03 03:57:42;;;;;;;10.50;4.13;;;18.30;62.80;;;;;;5016962;28;20440;-88
2022/07/03 04:00:08;;;;;;;7.80;3.50;;;18.30;62.70;;;;;;5019293;28;20174;-88
2022/07/03 04:02:34;;;;;;;6.30;4.25;;;18.30;63.00;;;;;;5020502;28;20183;-89
2022/07/03 04:05:04;;;;;;;7.93;3.33;;;18.30;63.00;;;;;;5030574;28;20182;-89
2022/07/03 04:07:30;;;;;;;8.13;4.05;;;18.30;63.20;;;;;;5035856;28;20258;-89
2022/07/03 04:09:56;;;;;;;6.27;3.87;;;18.30;63.10;;;;;;5024079;28;20186;-87
2022/07/03 04:12:22;;;;;;;7.88;4.10;;;18.30;63.40;;;;;;5026543;28;20214;-89
2022/07/03 04:14:47;;;;;;;5.23;4.10;;;18.30;63.70;;;;;;5028542;28;20179;-89
2022/07/03 04:17:13;;;;;;;7.17;4.37;;;18.30;63.60;;;;;;5023364;28;20225;-89
2022/07/03 04:19:39;;;;;;;5.40;3.37;;;18.30;63.50;;;;;;5038743;28;20170;-88
2022/07/03 04:22:08;;;;;;;5.27;3.60;;;18.30;63.60;;;;;;5023439;28;20190;-89
2022/07/03 04:24:37;;;;;;;5.68;3.25;;;18.30;63.30;;;;;;5019279;28;20782;-88
2022/07/03 04:27:11;;;;;;;8.50;3.60;;;18.30;63.50;;;;;;5018384;28;20198;-89
2022/07/03 04:29:37;;;;;;;4.05;3.20;;;18.30;63.80;;;;;;5017955;28;20170;-88
2022/07/03 04:32:03;;;;;;;5.93;3.10;;;18.30;63.60;;;;;;5018547;28;20222;-88
2022/07/03 04:34:29;;;;;;;6.70;3.67;;;18.30;63.40;;;;;;5018854;28;20178;-88
2022/07/03 04:36:54;;;;;;;6.47;3.40;;;18.30;63.50;;;;;;5028732;28;20464;-88
2022/07/03 04:39:20;;;;;;;7.43;3.80;;;18.30;63.70;;;;;;5035992;28;20181;-89
2022/07/03 04:41:46;;;;;;;5.93;3.70;;;18.40;63.40;;;;;;5038898;28;20292;-88
2022/07/03 04:44:12;;;;;;;4.33;3.40;;;18.50;63.60;;;;;;5038893;28;20412;-88
2022/07/03 04:46:37;;;;;;;7.60;3.60;;;18.60;63.10;;;;;;5038449;28;20560;-89
2022/07/03 04:49:04;;;;;;;9.60;4.13;;;18.70;63.40;;;;;;5043052;28;20811;-88
2022/07/03 04:51:31;;;;;;;5.18;3.95;;;18.70;63.30;;;;;;5037953;28;20208;-88
2022/07/03 04:53:57;;;;;;;5.00;3.70;;;18.70;63.20;;;;;;5042670;28;20178;-88
2022/07/03 04:56:23;;;;;;;7.03;4.10;;;18.80;63.10;;;;;;5047595;28;20181;-88
2022/07/03 04:58:49;;;;;;;5.90;3.60;;;18.80;63.30;;;;;;5056501;28;20198;-90
2022/07/03 05:01:15;;;;;;;10.65;4.28;;;18.80;63.70;;;;;;5056715;28;20234;-89
2022/07/03 05:03:41;;;;;;;10.30;5.87;;;18.80;63.10;;;;;;5058143;28;20182;-90
2022/07/03 05:06:07;;;;;;;5.97;5.20;;;18.80;63.50;;;;;;5057972;28;20203;-89
2022/07/03 05:08:32;;;;;;;12.63;5.90;;;18.70;63.70;;;;;;5052712;28;20198;-90
2022/07/03 05:11:00;;;;;;;8.43;6.20;;;18.70;64.50;;;;;;5041122;28;20175;-90
2022/07/03 05:13:25;;;;;;;7.82;6.90;;;18.60;64.80;;;;;;5036541;28;20578;-89
2022/07/03 05:15:51;;;;;;;11.40;6.63;;;18.60;65.20;;;;;;5019546;28;20201;-89
2022/07/03 05:18:17;;;;;;;10.90;7.23;;;18.60;65.30;;;;;;5038295;28;20428;-89
2022/07/03 05:20:42;;;;;;;10.37;6.30;;;18.70;65.20;;;;;;5043400;28;20250;-89
2022/07/03 05:23:08;;;;;;;7.97;5.47;;;19.20;64.70;;;;;;5045691;28;20186;-89
2022/07/03 05:25:34;;;;;;;9.80;4.70;;;19.40;63.30;;;;;;5036279;28;20178;-88
2022/07/03 05:28:01;;;;;;;9.60;6.80;;;20.10;62.30;;;;;;5036446;28;20201;-89
2022/07/03 05:30:27;;;;;;;6.47;5.87;;;21.00;59.30;;;;;;5039936;28;20189;-89
2022/07/03 05:32:55;;;;;;;9.07;6.17;;;22.00;55.70;;;;;;5038141;28;20507;-90
2022/07/03 05:35:21;;;;;;;7.07;5.07;;;22.80;53.70;;;;;;5050829;28;20174;-89
2022/07/03 05:38:09;;;;;;;8.20;4.60;;;23.70;51.10;;;;;;5036411;28;20441;-90
2022/07/03 05:40:34;;;;;;;5.90;5.17;;;24.30;49.40;;;;;;5036022;28;20508;-90
2022/07/03 05:43:00;;;;;;;6.67;5.03;;;24.80;47.30;;;;;;5036150;28;20552;-90
2022/07/03 05:45:26;;;;;;;6.77;4.90;;;25.10;46.10;;;;;;5035102;28;20642;-91
2022/07/03 05:47:51;;;;;;;8.60;5.10;;;25.20;46.00;;;;;;5034501;28;20207;-90
2022/07/03 05:50:17;;;;;;;6.93;4.90;;;25.40;45.20;;;;;;5035700;28;20220;-90
2022/07/03 05:52:43;;;;;;;7.40;4.90;;;25.80;44.30;;;;;;5036236;28;20251;-90
2022/07/03 05:55:22;;;;;;;6.90;5.43;;;25.50;44.70;;;;;;5043803;28;20482;-90
2022/07/03 05:57:48;;;;;;;6.40;5.00;;;24.60;46.40;;;;;;5053864;28;20200;-89
2022/07/03 06:00:14;;;;;;;6.77;5.50;;;23.90;48.80;;;;;;5038922;28;20456;-89
2022/07/03 06:02:40;;;;;;;7.03;5.20;;;23.80;49.90;;;;;;5035128;28;20235;-89
2022/07/03 06:05:06;;;;;;;6.07;5.47;;;23.80;50.40;;;;;;5033511;28;20236;-89
2022/07/03 06:07:31;;;;;;;7.10;5.30;;;23.90;50.00;;;;;;5018022;28;20216;-89
2022/07/03 06:09:57;;;;;;;7.80;5.60;;;23.80;50.50;;;;;;5027548;28;20429;-90
2022/07/03 06:12:23;;;;;;;5.67;4.50;;;23.30;51.90;;;;;;5034245;28;20209;-89
2022/07/03 06:14:48;;;;;;;8.90;5.03;;;23.40;52.20;;;;;;5020776;28;20180;-89
2022/07/03 06:17:14;;;;;;;9.93;5.13;;;23.30;52.30;;;;;;5010008;28;20206;-89
2022/07/03 06:19:40;;;;;;;4.10;3.70;;;23.40;53.00;;;;;;5036127;28;20313;-90
2022/07/03 06:22:06;;;;;;;5.07;4.57;;;23.60;52.60;;;;;;5035771;28;20178;-90
2022/07/03 06:24:36;;;;;;;5.90;4.50;;;23.30;52.90;;;;;;5030882;28;20195;-89
2022/07/03 06:27:02;;;;;;;5.87;4.37;;;23.30;53.30;;;;;;5025050;28;20440;-89
2022/07/03 06:29:27;;;;;;;10.37;5.90;;;23.40;53.30;;;;;;5025108;28;20455;-88
2022/07/03 06:31:53;;;;;;;5.60;4.43;;;23.10;53.90;;;;;;5008340;28;20779;-88
2022/07/03 06:34:26;;;;;;;7.10;3.80;;;23.30;54.20;;;;;;5020372;28;20191;-89
2022/07/03 06:36:51;;;;;;;4.20;3.57;;;23.80;53.50;;;;;;5033898;28;20197;-90
2022/07/03 06:39:17;;;;;;;11.10;4.83;;;23.90;52.50;;;;;;5042898;28;20451;-92
2022/07/03 06:41:46;;;;;;;6.50;3.03;;;24.40;51.00;;;;;;5046059;28;20180;-89
2022/07/03 06:44:12;;;;;;;8.30;4.40;;;24.70;50.40;;;;;;5045262;28;20220;-92
2022/07/03 06:46:37;;;;;;;4.03;3.27;;;25.10;48.90;;;;;;5045557;28;20424;-92
2022/07/03 06:49:03;;;;;;;5.23;3.77;;;25.10;49.10;;;;;;5038411;28;20190;-90
2022/07/03 06:51:29;;;;;;;5.87;4.13;;;25.80;46.00;;;;;;5018160;28;20212;-90
2022/07/03 06:53:54;;;;;;;3.87;3.10;;;25.50;47.30;;;;;;5036151;28;20266;-90
2022/07/03 06:56:20;;;;;;;5.63;3.57;;;25.60;47.30;;;;;;5034703;28;20179;-89
2022/07/03 06:58:46;;;;;;;6.20;3.60;;;25.30;47.60;;;;;;5034548;28;20189;-91
2022/07/03 07:01:12;;;;;;;7.67;4.13;;;25.50;47.30;;;;;;5034775;28;20404;-90
2022/07/03 07:03:38;;;;;;;5.43;3.87;;;25.00;48.00;;;;;;5033375;28;20720;-90
2022/07/03 07:06:03;;;;;;;7.13;4.20;;;24.70;49.60;;;;;;5017840;28;20212;-89
2022/07/03 07:08:29;;;;;;;5.90;4.03;;;24.20;50.70;;;;;;5035884;28;20200;-89
2022/07/03 07:10:55;;;;;;;6.60;3.97;;;23.90;51.50;;;;;;5040542;28;20935;-90
2022/07/03 07:13:20;;;;;;;5.13;3.40;;;24.20;51.70;;;;;;5052935;28;20239;-90
2022/07/03 07:15:46;;;;;;;4.83;4.10;;;24.10;51.60;;;;;;5055137;28;20186;-91
2022/07/03 07:18:12;;;;;;;3.67;2.90;;;24.20;51.30;;;;;;5055192;28;20259;-89
2022/07/03 07:20:38;;;;;;;4.10;3.70;;;24.30;52.00;;;;;;5055021;28;20177;-90
2022/07/03 07:23:04;;;;;;;7.13;4.47;;;24.60;50.90;;;;;;5055282;28;20180;-91
2022/07/03 07:25:29;;;;;;;6.03;4.57;;;24.50;50.50;;;;;;5054897;28;20426;-92
2022/07/03 07:27:55;;;;;;;5.53;4.87;;;24.30;50.50;;;;;;5037432;28;20202;-92
2022/07/03 07:30:21;;;;;;;4.70;3.53;;;23.90;51.20;;;;;;5035182;28;20249;-89
2022/07/03 07:32:46;;;;;;;5.50;4.20;;;23.80;51.70;;;;;;5036701;28;20200;-89
2022/07/03 07:35:12;;;;;;;6.40;3.70;;;23.80;52.30;;;;;;5035866;28;20198;-90
2022/07/03 07:37:38;;;;;;;6.53;5.30;;;24.10;51.40;;;;;;5036040;28;20268;-90
2022/07/03 07:40:04;;;;;;;6.80;4.30;;;23.70;53.10;;;;;;5035892;28;20244;-90
2022/07/03 07:42:30;;;;;;;7.13;4.23;;;23.60;53.20;;;;;;5021928;28;20182;-90
2022/07/03 07:44:56;;;;;;;5.20;3.57;;;23.50;53.30;;;;;;5041454;28;20456;-89
2022/07/03 07:47:21;;;;;;;7.43;5.13;;;23.70;52.70;;;;;;5046467;28;20202;-89
2022/07/03 07:49:47;;;;;;;5.87;4.37;;;23.30;53.40;;;;;;5051809;28;20188;-91
2022/07/03 07:52:15;;;;;;;4.20;3.30;;;22.90;54.80;;;;;;5052733;28;20209;-89
2022/07/03 07:54:41;;;;;;;4.57;3.73;;;22.90;55.20;;;;;;5045541;28;20425;-90
2022/07/03 07:57:06;;;;;;;6.40;3.50;;;23.30;54.60;;;;;;5045058;28;20469;-90
2022/07/03 07:59:34;;;;;;;5.50;3.20;;;23.30;53.90;;;;;;5047528;28;20643;-89
2022/07/03 08:07:29;;;;;;;4.60;2.50;;;22.90;54.90;;;;;;5040599;28;20494;-89
2022/07/03 08:10:00;;;;;;;4.37;2.50;;;22.80;54.90;;;;;;5039550;28;20416;-89
2022/07/03 08:12:26;;;;;;;2.83;2.10;;;22.80;55.40;;;;;;5038604;28;20532;-89
2022/07/03 08:14:52;;;;;;;1.50;1.40;;;22.70;55.60;;;;;;5037697;28;20421;-89
2022/07/03 08:17:18;;;;;;;5.30;2.20;;;22.80;55.50;;;;;;5039143;28;20248;-89
2022/07/03 08:19:44;;;;;;;3.10;1.77;;;22.80;55.10;;;;;;5038325;28;20180;-88
2022/07/03 08:22:10;;;;;;;2.03;1.80;;;23.10;53.00;;;;;;5037937;28;20186;-89
2022/07/03 08:24:37;;;;;;;3.67;2.10;;;23.40;51.50;;;;;;5040404;28;20498;-89
2022/07/03 08:27:04;;;;;;;4.07;2.43;;;23.50;53.00;;;;;;5039367;28;20213;-89
2022/07/03 08:29:30;;;;;;;6.83;3.60;;;23.20;53.00;;;;;;5041711;28;20429;-90
2022/07/03 08:31:56;;;;;;;2.70;2.50;;;22.80;54.10;;;;;;5045939;28;20475;-89
2022/07/03 08:34:23;;;;;;;3.47;2.23;;;22.50;55.00;;;;;;5043477;28;20177;-90
2022/07/03 08:36:49;;;;;;;6.47;2.77;;;22.40;55.80;;;;;;5040798;28;21152;-90
2022/07/03 08:39:17;;;;;;;4.33;2.63;;;22.20;56.50;;;;;;5042043;28;20416;-89
2022/07/03 08:41:45;;;;;;;6.67;2.63;;;22.20;56.70;;;;;;5040909;28;20421;-89
2022/07/03 08:44:12;;;;;;;3.70;2.37;;;22.50;57.30;;;;;;5041908;28;20424;-88
2022/07/03 08:46:39;;;;;;;4.50;3.00;;;22.80;55.40;;;;;;5039256;28;20432;-90
2022/07/03 08:49:07;;;;;;;4.77;2.70;;;23.00;55.30;;;;;;5040505;28;20424;-89
2022/07/03 08:51:46;;;;;;;2.83;2.00;;;23.10;55.00;;;;;;5041058;28;20452;-89
2022/07/03 08:54:12;;;;;;;3.10;1.77;;;23.30;54.50;;;;;;5039040;28;20416;-89
2022/07/03 08:56:39;;;;;;;2.37;2.17;;;23.10;54.10;;;;;;5040000;28;20408;-89
2022/07/03 08:59:07;;;;;;;2.50;2.30;;;23.00;54.30;;;;;;5042861;28;20174;-88
2022/07/03 09:01:34;;;;;;;4.17;2.00;;;22.90;53.60;;;;;;5051882;28;20450;-88
2022/07/03 09:04:01;;;;;;;4.03;2.00;;;23.20;53.60;;;;;;5044928;28;20417;-89
2022/07/03 09:06:33;;;;;;;4.17;2.90;;;23.50;52.80;;;;;;5045241;28;20420;-90
2022/07/03 09:09:03;;;;;;;4.50;2.40;;;23.30;52.90;;;;;;5048488;28;20455;-88
2022/07/03 09:11:32;;;;;;;4.67;2.23;;;23.30;52.90;;;;;;5051554;28;20459;-89
2022/07/03 09:13:57;;;;;;;3.60;3.10;;;23.40;53.30;;;;;;5053947;28;20443;-89
2022/07/03 09:16:23;;;;;;;3.80;1.83;;;22.90;53.80;;;;;;5052819;28;20444;-89
2022/07/03 09:18:49;;;;;;;3.70;2.00;;;23.30;54.00;;;;;;5053545;28;20221;-89
2022/07/03 09:21:16;;;;;;;3.33;1.70;;;23.60;53.70;;;;;;5052584;28;20440;-89
2022/07/03 09:23:44;;;;;;;6.00;2.10;;;23.60;51.70;;;;;;5051296;28;20200;-89
2022/07/03 09:26:15;;;;;;;4.83;1.70;;;23.50;51.00;;;;;;5052028;28;20425;-89
2022/07/03 09:28:52;;;;;;;3.40;1.70;;;23.70;51.10;;;;;;5052911;28;20440;-89
2022/07/03 09:31:27;;;;;;;4.43;1.90;;;23.80;50.40;;;;;;5054910;28;20444;-90
2022/07/03 09:34:02;;;;;;;2.00;1.50;;;24.30;48.10;;;;;;5055656;28;20886;-91
2022/07/03 09:36:47;;;;;;;1.50;1.20;;;24.50;48.70;;;;;;5055457;28;20410;-91
2022/07/03 09:39:19;;;;;;;2.77;1.37;;;24.50;48.30;;;;;;5052248;28;20420;-89
2022/07/03 09:41:53;;;;;;;1.70;1.50;;;24.90;47.90;;;;;;5048024;28;20454;-90
2022/07/03 09:44:33;;;;;;;1.70;1.60;;;25.20;45.10;;;;;;5046628;28;20434;-88
2022/07/03 09:47:15;;;;;;;3.10;1.93;;;24.80;47.00;;;;;;5039379;28;20473;-89
2022/07/03 09:50:11;;;;;;;2.70;1.70;;;24.70;47.50;;;;;;5038116;28;20502;-89
2022/07/03 09:52:44;;;;;;;3.83;1.40;;;25.10;43.60;;;;;;5024033;28;20554;-89
2022/07/03 09:55:10;;;;;;;1.60;1.20;;;25.20;43.60;;;;;;5046892;28;20446;-89
2022/07/03 09:57:41;;;;;;;3.03;1.60;;;25.30;41.20;;;;;;5043077;28;20463;-88
2022/07/03 10:00:24;;;;;;;3.37;1.20;;;25.00;43.90;;;;;;5037638;28;20184;-89
2022/07/03 10:03:06;;;;;;;1.70;1.60;;;24.80;45.10;;;;;;5039459;28;20419;-89
2022/07/03 10:05:39;;;;;;;2.13;1.30;;;24.40;46.00;;;;;;5030082;28;20425;-89
2022/07/03 10:08:12;;;;;;;2.33;1.30;;;24.40;46.20;;;;;;5055607;28;20449;-89
2022/07/03 10:10:41;;;;;;;2.50;1.40;;;24.40;46.90;;;;;;5048603;28;20493;-89
2022/07/03 10:13:07;;;;;;;3.13;1.13;;;24.50;44.80;;;;;;5037486;28;20468;-89
2022/07/03 10:15:37;;;;;;;2.00;1.20;;;24.60;45.10;;;;;;5037076;28;20414;-88
2022/07/03 10:18:07;;;;;;;3.37;1.37;;;24.40;45.60;;;;;;5034811;28;20438;-88
2022/07/03 10:20:40;;;;;;;3.07;1.30;;;24.80;44.20;;;;;;5036621;28;21095;-89
2022/07/03 10:23:07;;;;;;;2.20;1.37;;;24.80;44.00;;;;;;5035307;28;20440;-89
2022/07/03 10:25:33;;;;;;;3.33;1.40;;;25.20;41.60;;;;;;5035443;28;20437;-87
2022/07/03 10:28:01;;;;;;;1.73;1.27;;;25.20;42.80;;;;;;5035263;28;20444;-89
2022/07/03 10:30:27;;;;;;;2.23;1.20;;;25.00;44.70;;;;;;5035797;28;20524;-89
2022/07/03 10:33:00;;;;;;;2.40;1.20;;;24.70;45.80;;;;;;5036030;28;20461;-89
2022/07/03 10:35:31;;;;;;;1.73;1.07;;;24.70;45.50;;;;;;5038721;28;20436;-88
2022/07/03 10:38:00;;;;;;;1.30;1.00;;;24.80;45.20;;;;;;5040463;28;20480;-89
2022/07/03 10:46:22;;;;;;;1.87;1.17;;;24.40;44.70;;;;;;5051111;28;20856;-89
2022/07/03 10:48:51;;;;;;;1.40;1.30;;;24.70;43.70;;;;;;5047853;28;20433;-89
2022/07/03 10:51:17;;;;;;;2.07;1.03;;;24.50;44.50;;;;;;5049553;28;20930;-89
2022/07/03 10:53:43;;;;;;;1.77;1.20;;;24.50;45.30;;;;;;5044193;28;20405;-89
2022/07/03 10:56:11;;;;;;;1.93;1.20;;;24.70;42.90;;;;;;5038642;28;20185;-89
2022/07/03 10:59:00;;;;;;;1.20;0.90;;;24.00;43.70;;;;;;5038807;28;20670;-89
2022/07/03 11:01:32;;;;;;;1.67;1.13;;;24.30;43.10;;;;;;5037657;28;20424;-89
2022/07/03 11:03:59;;;;;;;1.93;1.20;;;24.30;43.80;;;;;;5053043;28;20417;-89
2022/07/03 11:06:51;;;;;;;3.83;1.20;;;24.30;44.00;;;;;;5020706;28;20428;-89
2022/07/03 11:09:16;;;;;;;3.57;1.10;;;24.40;44.30;;;;;;5036591;28;20420;-89
2022/07/03 11:11:55;;;;;;;2.03;1.10;;;24.40;43.10;;;;;;5038065;28;20456;-89
2022/07/03 11:14:23;;;;;;;4.37;1.00;;;24.60;41.90;;;;;;5039559;28;20165;-89
2022/07/03 11:16:48;;;;;;;1.93;1.10;;;24.50;42.00;;;;;;5037862;28;20920;-89
2022/07/03 11:19:25;;;;;;;1.57;1.00;;;24.40;42.80;;;;;;5019454;28;20444;-88
2022/07/03 11:21:58;;;;;;;1.40;1.10;;;24.70;41.90;;;;;;5005736;28;20262;-89
2022/07/03 11:24:44;;;;;;;6.03;1.93;;;25.00;40.70;;;;;;5031174;28;20425;-88
2022/07/03 11:27:23;;;;;;;6.57;1.30;;;25.20;39.40;;;;;;5015429;28;20449;-89
2022/07/03 11:29:58;;;;;;;1.73;1.00;;;24.80;41.30;;;;;;5007284;28;20417;-89
2022/07/03 11:32:49;;;;;;;4.37;1.20;;;24.50;41.90;;;;;;5030059;28;20446;-89
2022/07/03 11:35:50;;;;;;;3.10;1.20;;;24.50;43.00;;;;;;5033925;28;20408;-89
2022/07/03 11:38:24;;;;;;;2.23;1.20;;;24.40;43.00;;;;;;5036174;28;20469;-89
2022/07/03 11:40:52;;;;;;;5.73;1.60;;;24.00;43.70;;;;;;5037380;28;20405;-89
2022/07/03 11:43:18;;;;;;;3.77;1.40;;;24.00;44.00;;;;;;5038440;28;20413;-89
2022/07/03 11:45:46;;;;;;;3.30;1.40;;;24.00;44.10;;;;;;5040442;28;20430;-88
2022/07/03 11:48:14;;;;;;;3.27;1.47;;;24.10;44.70;;;;;;5040536;28;20480;-88
2022/07/03 11:50:44;;;;;;;3.00;1.40;;;23.70;44.40;;;;;;5034272;28;20421;-88
2022/07/03 11:53:16;;;;;;;1.60;1.30;;;23.70;44.30;;;;;;5018792;28;20483;-88
2022/07/03 11:55:53;;;;;;;2.70;0.97;;;23.90;44.30;;;;;;5018406;28;20429;-88
2022/07/03 11:58:20;;;;;;;5.00;1.37;;;24.00;43.50;;;;;;5018520;28;20598;-88
2022/07/03 12:00:46;;;;;;;4.67;1.70;;;23.90;43.10;;;;;;5018365;28;20426;-88
2022/07/03 12:03:15;;;;;;;1.77;1.10;;;23.80;43.10;;;;;;5019819;28;20428;-88
2022/07/03 12:05:52;;;;;;;3.07;1.60;;;23.50;43.50;;;;;;5018987;28;20432;-89
2022/07/03 12:08:23;;;;;;;1.40;1.07;;;23.40;43.40;;;;;;5017917;28;20444;-89
2022/07/03 12:10:55;;;;;;;4.17;1.60;;;23.40;43.90;;;;;;5020417;28;20453;-91
2022/07/03 12:13:22;;;;;;;3.63;1.43;;;23.40;43.80;;;;;;5023165;28;21023;-90
2022/07/03 12:15:49;;;;;;;4.47;1.30;;;23.50;44.30;;;;;;5009617;28;20457;-89
2022/07/03 12:18:15;;;;;;;1.60;1.20;;;23.50;45.30;;;;;;5027531;28;20449;-89
2022/07/03 12:20:41;;;;;;;3.70;1.20;;;23.40;44.80;;;;;;5024328;28;20418;-89
2022/07/03 12:23:08;;;;;;;2.73;1.40;;;23.80;45.00;;;;;;5022403;28;20468;-89
2022/07/03 12:25:43;;;;;;;5.10;2.17;;;23.80;43.70;;;;;;5021752;28;20434;-90
2022/07/03 12:28:10;;;;;;;2.53;1.40;;;23.70;43.90;;;;;;5022556;28;20429;-88
2022/07/03 12:30:37;;;;;;;1.53;1.10;;;23.60;43.80;;;;;;5018787;28;20517;-89
2022/07/03 12:33:05;;;;;;;2.97;1.60;;;23.90;43.60;;;;;;5025214;28;20477;-89
2022/07/03 12:35:32;;;;;;;3.40;1.37;;;23.90;43.60;;;;;;5024565;28;20429;-89
2022/07/03 12:37:58;;;;;;;2.50;1.50;;;24.20;43.50;;;;;;5042047;28;20447;-91
2022/07/03 12:40:24;;;;;;;5.17;1.63;;;24.30;42.70;;;;;;5049874;28;20453;-89
2022/07/03 12:42:54;;;;;;;1.60;1.47;;;24.10;42.60;;;;;;5041397;28;20190;-88
2022/07/03 12:45:22;;;;;;;1.60;1.30;;;23.80;43.00;;;;;;5047411;28;20416;-88
2022/07/03 12:48:01;;;;;;;2.47;1.40;;;23.90;42.80;;;;;;5040650;28;20464;-88
2022/07/03 12:50:47;;;;;;;2.63;1.60;;;24.00;43.60;;;;;;5041554;28;20425;-90
2022/07/03 12:53:34;;;;;;;2.13;1.40;;;24.00;44.00;;;;;;5053414;28;20483;-89
2022/07/03 12:56:01;;;;;;;2.27;1.00;;;23.90;44.60;;;;;;5038353;28;20421;-88
2022/07/03 13:01:36;;;;;;;1.60;1.20;;;24.50;42.20;;;;;;5039102;28;20447;-88
2022/07/03 13:04:03;;;;;;;2.07;1.43;;;24.90;39.90;;;;;;5037807;28;20899;-89
2022/07/03 13:06:29;;;;;;;3.73;1.60;;;25.00;40.20;;;;;;5038159;28;20902;-89
2022/07/03 13:08:56;;;;;;;2.90;1.53;;;24.60;42.00;;;;;;5038113;28;20422;-89
2022/07/03 13:11:38;;;;;;;1.87;1.40;;;24.40;43.70;;;;;;5037357;28;20464;-89
2022/07/03 13:14:15;;;;;;;2.47;2.20;;;24.60;42.80;;;;;;5039782;28;20410;-90